Time;durP1;ratioP1;P1;durP2;ratioP2;P2;SDS_P1;SDS_P2;PMS_P1;PMS_P2;Temp;Humidity;BMP_temperature;BMP_pressure;BME280_temperature;BME280_humidity;BME280_pressure;Samples;Min_cycle;Max_cycle;Signal;HPM_P1;HPM_P2
2023/03/08 00:03:53;;;;;;;7.05;4.95;;;;;;;;;;10412894;27;20070;-63
2023/03/08 00:08:55;;;;;;;11.77;6.88;;;;;;;;;;10414421;27;20071;-62
2023/03/08 00:13:54;;;;;;;6.07;4.63;;;;;;;;;;10413608;27;20082;-60
2023/03/08 00:18:52;;;;;;;6.22;5.30;;;;;;;;;;10414772;27;20075;-61
2023/03/08 00:23:51;;;;;;;12.13;7.07;;;;;;;;;;10411288;27;20067;-60
2023/03/08 00:28:51;;;;;;;8.45;5.07;;;;;;;;;;10415996;27;20086;-61
2023/03/08 00:33:52;;;;;;;6.45;5.28;;;;;;;;;;10414372;27;20071;-62
2023/03/08 00:38:51;;;;;;;6.15;5.22;;;;;;;;;;10411945;27;20051;-62
2023/03/08 00:43:51;;;;;;;4.60;4.15;;;;;;;;;;10415985;27;20089;-62
2023/03/08 00:48:49;;;;;;;6.95;5.80;;;;;;;;;;10414155;27;20497;-62
2023/03/08 00:53:47;;;;;;;8.13;5.05;;;;;;;;;;10412159;27;20059;-62
2023/03/08 00:58:45;;;;;;;7.78;5.70;;;;;;;;;;10416759;27;20547;-62
2023/03/08 01:03:45;;;;;;;4.95;4.47;;;;;;;;;;10408356;27;20526;-61
2023/03/08 01:08:44;;;;;;;5.68;4.88;;;;;;;;;;10413129;27;20086;-62
2023/03/08 01:13:42;;;;;;;8.60;5.05;;;;;;;;;;10409406;27;20078;-61
2023/03/08 01:18:40;;;;;;;7.68;4.82;;;;;;;;;;10411411;27;20078;-61
2023/03/08 01:23:40;;;;;;;6.70;5.40;;;;;;;;;;10416988;27;20090;-62
2023/03/08 01:28:39;;;;;;;6.28;5.53;;;;;;;;;;10414734;27;20074;-62
2023/03/08 01:33:38;;;;;;;5.35;4.47;;;;;;;;;;10415104;27;20457;-61
2023/03/08 01:38:36;;;;;;;5.15;4.43;;;;;;;;;;10411668;27;20503;-61
2023/03/08 01:43:37;;;;;;;7.18;4.90;;;;;;;;;;10412461;27;20039;-61
2023/03/08 01:48:39;;;;;;;6.07;4.45;;;;;;;;;;10412534;27;20043;-61
2023/03/08 01:53:42;;;;;;;5.97;4.78;;;;;;;;;;10412185;27;20133;-61
2023/03/08 01:58:43;;;;;;;4.45;4.00;;;;;;;;;;10412409;27;20096;-61
2023/03/08 02:03:41;;;;;;;6.38;3.90;;;;;;;;;;10412585;27;20071;-61
2023/03/08 02:08:41;;;;;;;7.28;5.00;;;;;;;;;;10412002;28;20469;-62
2023/03/08 02:13:39;;;;;;;9.30;4.95;;;;;;;;;;10413627;28;20048;-61
2023/03/08 02:18:48;;;;;;;6.72;4.22;;;;;;;;;;10411799;28;20492;-61
2023/03/08 02:23:48;;;;;;;7.50;4.50;;;;;;;;;;10413332;28;20054;-62
2023/03/08 02:28:46;;;;;;;6.93;5.07;;;;;;;;;;10406891;28;20067;-62
2023/03/08 02:33:44;;;;;;;4.82;4.20;;;;;;;;;;10413409;28;20067;-61
2023/03/08 02:38:43;;;;;;;5.15;4.05;;;;;;;;;;10417657;28;20071;-62
2023/03/08 02:43:42;;;;;;;5.80;4.50;;;;;;;;;;10412066;28;20063;-62
2023/03/08 02:48:40;;;;;;;5.80;4.50;;;;;;;;;;10411616;28;20082;-62
2023/03/08 02:53:38;;;;;;;7.18;4.38;;;;;;;;;;10406219;28;20071;-61
2023/03/08 02:58:37;;;;;;;5.05;4.47;;;;;;;;;;10411570;28;20527;-61
2023/03/08 03:03:36;;;;;;;10.82;4.78;;;;;;;;;;10411742;28;20178;-62
2023/03/08 03:08:34;;;;;;;5.32;4.28;;;;;;;;;;10410737;28;20074;-62
2023/03/08 03:13:33;;;;;;;7.50;5.60;;;;;;;;;;10410000;28;20047;-62
2023/03/08 03:18:31;;;;;;;7.43;4.80;;;;;;;;;;10412316;28;20071;-62
2023/03/08 03:23:30;;;;;;;6.10;5.00;;;;;;;;;;10417804;27;20047;-62
2023/03/08 03:28:30;;;;;;;6.88;4.75;;;;;;;;;;10425673;27;20101;-62
2023/03/08 03:33:30;;;;;;;5.50;4.78;;;;;;;;;;10418411;27;20040;-62
2023/03/08 03:38:29;;;;;;;6.53;5.07;;;;;;;;;;10411299;27;20079;-62
2023/03/08 03:43:29;;;;;;;5.47;4.97;;;;;;;;;;10415845;27;20039;-62
2023/03/08 03:48:28;;;;;;;8.93;6.05;;;;;;;;;;10418718;27;20237;-62
2023/03/08 03:53:27;;;;;;;9.75;5.80;;;;;;;;;;10418656;27;20508;-62
2023/03/08 03:58:26;;;;;;;5.75;4.95;;;;;;;;;;10416121;27;20087;-63
2023/03/08 04:03:26;;;;;;;5.32;4.53;;;;;;;;;;10424901;27;20079;-61
2023/03/08 04:08:25;;;;;;;8.43;5.18;;;;;;;;;;10430185;27;20067;-62
2023/03/08 04:13:23;;;;;;;6.35;4.90;;;;;;;;;;10417895;27;20043;-62
2023/03/08 04:18:22;;;;;;;8.18;5.53;;;;;;;;;;10423431;27;20670;-62
2023/03/08 04:23:22;;;;;;;5.63;5.10;;;;;;;;;;10416729;27;20075;-62
2023/03/08 04:28:21;;;;;;;6.25;5.18;;;;;;;;;;10422606;27;20062;-62
2023/03/08 04:33:19;;;;;;;5.57;4.90;;;;;;;;;;10421105;27;20070;-62
2023/03/08 04:38:19;;;;;;;8.52;7.57;;;;;;;;;;10416255;27;20426;-63
2023/03/08 04:43:21;;;;;;;6.38;5.78;;;;;;;;;;10413678;27;20051;-62
2023/03/08 04:48:20;;;;;;;7.72;5.28;;;;;;;;;;10412046;27;20086;-62
2023/03/08 04:53:19;;;;;;;6.32;4.78;;;;;;;;;;10427091;27;20074;-62
2023/03/08 04:58:17;;;;;;;6.15;5.47;;;;;;;;;;10415558;27;20554;-62
2023/03/08 05:03:17;;;;;;;8.57;6.10;;;;;;;;;;10412930;27;20078;-62
2023/03/08 05:08:16;;;;;;;8.50;5.78;;;;;;;;;;10420642;27;20707;-62
2023/03/08 05:13:14;;;;;;;5.53;5.03;;;;;;;;;;10424472;27;20082;-62
2023/03/08 05:18:13;;;;;;;9.73;8.43;;;;;;;;;;10409787;27;20066;-62
2023/03/08 05:23:13;;;;;;;10.48;7.65;;;;;;;;;;10407232;27;20077;-62
2023/03/08 05:28:14;;;;;;;6.00;5.40;;;;;;;;;;10409805;27;20071;-62
2023/03/08 05:33:15;;;;;;;5.95;4.85;;;;;;;;;;10409087;27;20083;-62
2023/03/08 05:38:15;;;;;;;8.27;6.72;;;;;;;;;;10406817;27;20081;-62
2023/03/08 05:43:14;;;;;;;11.57;7.88;;;;;;;;;;10415239;27;20071;-61
2023/03/08 05:48:12;;;;;;;6.75;4.38;;;;;;;;;;10410607;27;20084;-62
2023/03/08 05:53:10;;;;;;;5.93;4.70;;;;;;;;;;10405492;27;20071;-62
2023/03/08 05:58:10;;;;;;;8.23;5.32;;;;;;;;;;10404558;27;20085;-62
2023/03/08 06:03:09;;;;;;;8.60;4.55;;;;;;;;;;10410790;27;20093;-62
2023/03/08 06:08:09;;;;;;;6.03;5.07;;;;;;;;;;10413215;28;20055;-62
2023/03/08 06:13:08;;;;;;;5.72;4.38;;;;;;;;;;10402900;27;20071;-62
2023/03/08 06:18:08;;;;;;;7.82;5.85;;;;;;;;;;10414002;27;20078;-62
2023/03/08 06:23:07;;;;;;;6.95;5.53;;;;;;;;;;10402143;28;20078;-62
2023/03/08 06:28:05;;;;;;;7.75;6.20;;;;;;;;;;10402243;28;20086;-62
2023/03/08 06:33:09;;;;;;;8.30;6.22;;;;;;;;;;10416583;28;20463;-61
2023/03/08 06:38:08;;;;;;;8.90;5.35;;;;;;;;;;10405346;28;20093;-62
2023/03/08 06:43:07;;;;;;;9.60;5.70;;;;;;;;;;10408103;28;20074;-62
2023/03/08 06:48:06;;;;;;;9.32;5.38;;;;;;;;;;10412518;28;20063;-62
2023/03/08 06:53:06;;;;;;;16.98;7.65;;;;;;;;;;10407389;27;20568;-62
2023/03/08 06:58:24;;;;;;;13.52;7.38;;;;;;;;;;10423337;27;20094;-63
2023/03/08 07:03:22;;;;;;;21.83;10.70;;;;;;;;;;10413326;27;20523;-63
2023/03/08 07:08:22;;;;;;;16.20;8.35;;;;;;;;;;10417824;27;20071;-63
2023/03/08 07:13:22;;;;;;;17.25;7.85;;;;;;;;;;10420593;27;20086;-63
2023/03/08 07:18:21;;;;;;;6.45;5.00;;;;;;;;;;10407037;27;20075;-62
2023/03/08 07:23:19;;;;;;;5.82;4.00;;;;;;;;;;10411136;27;20085;-63
2023/03/08 07:28:18;;;;;;;14.88;4.88;;;;;;;;;;10411649;27;20439;-62
2023/03/08 07:33:18;;;;;;;6.28;5.28;;;;;;;;;;10415637;27;20094;-62
2023/03/08 07:38:16;;;;;;;7.65;4.97;;;;;;;;;;10411296;27;20134;-62
2023/03/08 07:43:14;;;;;;;7.78;5.15;;;;;;;;;;10411719;27;20188;-62
2023/03/08 07:48:25;;;;;;;7.57;4.85;;;;;;;;;;10409910;27;20070;-62
2023/03/08 07:53:23;;;;;;;7.35;4.32;;;;;;;;;;10412814;27;20079;-62
2023/03/08 07:58:21;;;;;;;8.32;5.00;;;;;;;;;;10415208;27;20531;-63
2023/03/08 08:03:20;;;;;;;8.20;5.10;;;;;;;;;;10413915;27;20368;-63
2023/03/08 08:08:19;;;;;;;8.05;5.70;;;;;;;;;;10416802;27;20079;-63
2023/03/08 08:13:18;;;;;;;8.95;6.30;;;;;;;;;;10408671;27;20066;-63
2023/03/08 08:18:16;;;;;;;7.88;5.10;;;;;;;;;;10415709;27;20067;-63
2023/03/08 08:23:14;;;;;;;9.90;4.63;;;;;;;;;;10412878;27;20070;-63
2023/03/08 08:28:14;;;;;;;10.80;5.80;;;;;;;;;;10414566;27;20062;-62
2023/03/08 08:33:12;;;;;;;15.77;9.30;;;;;;;;;;10413489;27;20063;-63
2023/03/08 08:38:10;;;;;;;10.18;5.28;;;;;;;;;;10412846;27;20075;-63
2023/03/08 08:43:08;;;;;;;8.57;4.03;;;;;;;;;;10406475;27;20074;-62
2023/03/08 08:48:08;;;;;;;6.53;4.30;;;;;;;;;;10413950;27;20075;-62
2023/03/08 08:53:06;;;;;;;6.45;3.95;;;;;;;;;;10415718;27;20066;-63
2023/03/08 08:58:05;;;;;;;8.10;5.53;;;;;;;;;;10415153;27;20529;-62
2023/03/08 09:03:04;;;;;;;6.60;4.65;;;;;;;;;;10414664;27;20078;-63
2023/03/08 09:08:03;;;;;;;10.18;4.93;;;;;;;;;;10410824;27;20063;-63
2023/03/08 09:13:01;;;;;;;7.82;4.65;;;;;;;;;;10412972;27;20070;-63
2023/03/08 09:18:00;;;;;;;7.50;4.85;;;;;;;;;;10409424;27;20511;-62
2023/03/08 09:22:58;;;;;;;7.85;4.50;;;;;;;;;;10409836;27;20459;-63
2023/03/08 09:27:58;;;;;;;7.10;4.32;;;;;;;;;;10412637;27;20507;-63
2023/03/08 09:32:56;;;;;;;3.58;3.13;;;;;;;;;;10411455;27;20070;-62
2023/03/08 09:37:54;;;;;;;3.15;2.83;;;;;;;;;;10412549;27;20078;-63
2023/03/08 09:42:56;;;;;;;5.03;3.75;;;;;;;;;;10413161;27;20071;-62
2023/03/08 09:48:03;;;;;;;5.93;3.20;;;;;;;;;;10413936;27;20070;-63
2023/03/08 09:53:04;;;;;;;5.25;3.55;;;;;;;;;;10415134;27;20086;-62
2023/03/08 09:58:04;;;;;;;5.30;3.20;;;;;;;;;;10412480;27;20083;-62
2023/03/08 10:03:17;;;;;;;5.13;3.65;;;;;;;;;;10411540;27;20067;-63
2023/03/08 10:08:19;;;;;;;7.63;4.63;;;;;;;;;;10408175;27;20086;-63
2023/03/08 10:13:28;;;;;;;8.02;4.50;;;;;;;;;;10410486;28;20043;-63
2023/03/08 10:18:29;;;;;;;7.72;3.72;;;;;;;;;;10412716;28;20075;-63
2023/03/08 10:23:31;;;;;;;7.13;5.63;;;;;;;;;;10413406;27;20074;-63
2023/03/08 10:28:29;;;;;;;6.40;4.40;;;;;;;;;;10412611;27;20073;-63
2023/03/08 10:33:31;;;;;;;8.80;6.18;;;;;;;;;;10420422;27;20074;-63
2023/03/08 10:38:32;;;;;;;7.13;3.95;;;;;;;;;;10422140;27;20512;-63
2023/03/08 10:43:31;;;;;;;8.02;3.83;;;;;;;;;;10417037;27;20047;-63
2023/03/08 10:48:30;;;;;;;7.18;3.38;;;;;;;;;;10419665;27;20070;-63
2023/03/08 10:53:29;;;;;;;4.85;3.78;;;;;;;;;;10419527;27;20063;-62
2023/03/08 10:58:36;;;;;;;7.80;3.85;;;;;;;;;;10420002;27;20504;-63
2023/03/08 11:03:34;;;;;;;7.22;3.33;;;;;;;;;;10420519;27;20087;-62
2023/03/08 11:08:33;;;;;;;7.93;4.35;;;;;;;;;;10419793;27;20043;-63
2023/03/08 11:13:33;;;;;;;6.72;4.10;;;;;;;;;;10419036;27;20090;-62
2023/03/08 11:18:42;;;;;;;5.78;4.28;;;;;;;;;;10419817;27;20075;-63
2023/03/08 11:23:44;;;;;;;6.22;3.15;;;;;;;;;;10420025;27;20114;-62
2023/03/08 11:28:51;;;;;;;6.38;2.88;;;;;;;;;;10420095;27;20492;-62
2023/03/08 11:34:04;;;;;;;4.03;2.95;;;;;;;;;;10413344;27;20449;-62
2023/03/08 11:39:08;;;;;;;5.50;3.67;;;;;;;;;;10417833;27;20083;-62
2023/03/08 11:44:16;;;;;;;8.77;4.45;;;;;;;;;;10416011;27;20051;-63
2023/03/08 11:49:21;;;;;;;11.82;4.75;;;;;;;;;;10417195;27;20090;-62
2023/03/08 11:54:24;;;;;;;7.32;4.85;;;;;;;;;;10417827;27;20071;-62
2023/03/08 11:59:26;;;;;;;5.70;3.35;;;;;;;;;;10419323;27;20087;-62
2023/03/08 12:04:26;;;;;;;5.60;2.75;;;;;;;;;;10417564;27;20063;-62
2023/03/08 12:09:30;;;;;;;12.13;7.30;;;;;;;;;;10418290;27;20105;-62
2023/03/08 12:14:30;;;;;;;4.30;3.28;;;;;;;;;;10417531;27;20059;-63
2023/03/08 12:19:32;;;;;;;6.28;2.90;;;;;;;;;;10416865;27;20082;-63
2023/03/08 12:24:38;;;;;;;3.97;2.15;;;;;;;;;;10417415;27;20072;-63
2023/03/08 12:29:38;;;;;;;7.88;2.78;;;;;;;;;;10414012;27;20061;-62
2023/03/08 12:34:38;;;;;;;3.83;2.85;;;;;;;;;;10414696;27;20067;-62
2023/03/08 12:39:37;;;;;;;5.60;3.88;;;;;;;;;;10415218;27;20077;-62
2023/03/08 12:44:36;;;;;;;5.25;3.33;;;;;;;;;;10416478;27;20070;-63
2023/03/08 12:49:36;;;;;;;6.63;3.00;;;;;;;;;;10415685;27;20077;-62
2023/03/08 12:54:35;;;;;;;4.15;3.13;;;;;;;;;;10414731;27;20079;-63
2023/03/08 12:59:36;;;;;;;5.32;3.10;;;;;;;;;;10417454;27;20091;-63
2023/03/08 13:04:35;;;;;;;6.38;3.08;;;;;;;;;;10414441;27;20043;-63
2023/03/08 13:09:45;;;;;;;7.50;3.38;;;;;;;;;;10414714;27;20052;-63
2023/03/08 13:14:45;;;;;;;5.30;3.85;;;;;;;;;;10414895;27;20477;-63
2023/03/08 13:19:45;;;;;;;6.32;2.85;;;;;;;;;;10414926;27;20142;-63
2023/03/08 13:24:46;;;;;;;6.47;3.65;;;;;;;;;;10413776;27;20093;-63
2023/03/08 13:29:46;;;;;;;6.25;3.60;;;;;;;;;;10414506;27;20071;-63
2023/03/08 13:34:45;;;;;;;4.15;2.72;;;;;;;;;;10414957;27;20074;-63
2023/03/08 13:39:51;;;;;;;3.97;3.08;;;;;;;;;;10412902;27;20508;-63
2023/03/08 13:44:50;;;;;;;6.00;3.63;;;;;;;;;;10413666;27;20063;-63
2023/03/08 13:49:49;;;;;;;10.63;4.32;;;;;;;;;;10409523;27;20467;-63
2023/03/08 13:54:50;;;;;;;4.00;3.00;;;;;;;;;;10414373;27;20078;-62
2023/03/08 13:59:50;;;;;;;5.60;3.45;;;;;;;;;;10412288;27;20078;-62
2023/03/08 14:04:48;;;;;;;11.55;2.83;;;;;;;;;;10412680;27;20067;-63
2023/03/08 14:09:47;;;;;;;11.15;4.57;;;;;;;;;;10413035;27;20301;-63
2023/03/08 14:14:48;;;;;;;6.85;3.80;;;;;;;;;;10414075;28;20485;-63
2023/03/08 14:19:52;;;;;;;7.85;4.95;;;;;;;;;;10410554;28;20078;-63
2023/03/08 14:24:53;;;;;;;5.78;3.90;;;;;;;;;;10411204;28;20077;-62
2023/03/08 14:30:00;;;;;;;6.93;4.13;;;;;;;;;;10412182;28;20048;-63
2023/03/08 14:35:06;;;;;;;8.68;6.07;;;;;;;;;;10412828;28;20489;-64
2023/03/08 14:40:21;;;;;;;7.15;4.57;;;;;;;;;;10407079;28;20113;-61
2023/03/08 14:45:21;;;;;;;6.70;4.68;;;;;;;;;;10412864;28;20059;-62
2023/03/08 14:50:23;;;;;;;7.05;4.00;;;;;;;;;;10412841;28;20036;-63
2023/03/08 14:55:22;;;;;;;10.10;3.63;;;;;;;;;;10411876;28;20059;-63
2023/03/08 15:00:21;;;;;;;7.10;4.18;;;;;;;;;;10407727;27;20094;-63
2023/03/08 15:05:21;;;;;;;9.27;4.38;;;;;;;;;;10414087;27;20079;-63
2023/03/08 15:10:29;;;;;;;7.32;4.53;;;;;;;;;;10411902;27;20063;-63
2023/03/08 15:15:27;;;;;;;13.50;5.18;;;;;;;;;;10415558;27;20067;-62
2023/03/08 15:20:25;;;;;;;7.15;3.70;;;;;;;;;;10427199;27;20082;-63
2023/03/08 15:25:24;;;;;;;8.88;4.60;;;;;;;;;;10417284;27;20602;-63
2023/03/08 15:30:24;;;;;;;8.02;5.30;;;;;;;;;;10414536;27;20074;-63
2023/03/08 15:35:23;;;;;;;12.68;6.50;;;;;;;;;;10417240;27;20751;-63
2023/03/08 15:40:22;;;;;;;7.38;5.20;;;;;;;;;;10416467;27;20492;-63
2023/03/08 15:45:20;;;;;;;12.48;7.30;;;;;;;;;;10416987;27;20063;-63
2023/03/08 15:50:20;;;;;;;20.33;13.23;;;;;;;;;;10422836;27;21361;-62
2023/03/08 15:55:18;;;;;;;9.18;5.65;;;;;;;;;;10419855;27;20090;-61
2023/03/08 16:00:17;;;;;;;41.03;23.25;;;;;;;;;;10420610;27;20078;-62
2023/03/08 16:05:18;;;;;;;22.73;16.98;;;;;;;;;;10412027;27;20074;-63
2023/03/08 16:10:18;;;;;;;24.67;16.98;;;;;;;;;;10411504;27;20070;-63
2023/03/08 16:15:16;;;;;;;24.77;14.52;;;;;;;;;;10414797;27;20090;-63
2023/03/08 16:20:15;;;;;;;64.40;40.10;;;;;;;;;;10425220;27;20079;-63
2023/03/08 16:25:13;;;;;;;124.07;79.32;;;;;;;;;;10418784;27;20070;-63
2023/03/08 16:30:13;;;;;;;167.55;118.25;;;;;;;;;;10416747;27;20071;-63
2023/03/08 16:35:12;;;;;;;106.55;77.00;;;;;;;;;;10412241;27;20082;-63
2023/03/08 16:40:10;;;;;;;26.77;17.13;;;;;;;;;;10406738;27;20071;-62
2023/03/08 16:45:09;;;;;;;36.03;25.77;;;;;;;;;;10409799;27;20089;-63
2023/03/08 16:50:10;;;;;;;53.38;35.03;;;;;;;;;;10408312;27;20473;-63
2023/03/08 16:55:08;;;;;;;42.95;35.40;;;;;;;;;;10402189;27;20086;-63
2023/03/08 17:00:11;;;;;;;46.20;41.22;;;;;;;;;;10405727;27;20081;-64
2023/03/08 17:05:12;;;;;;;70.97;50.25;;;;;;;;;;10408516;27;20063;-61
2023/03/08 17:10:11;;;;;;;63.72;48.35;;;;;;;;;;10407305;27;20536;-62
2023/03/08 17:15:10;;;;;;;82.13;62.28;;;;;;;;;;10409860;27;20479;-63
2023/03/08 17:20:09;;;;;;;41.40;35.05;;;;;;;;;;10402824;27;20070;-64
2023/03/08 17:25:09;;;;;;;16.38;13.70;;;;;;;;;;10408812;27;20066;-64
2023/03/08 17:30:09;;;;;;;17.80;9.88;;;;;;;;;;10405861;27;20082;-63
2023/03/08 17:35:07;;;;;;;35.50;27.75;;;;;;;;;;10412428;27;20153;-63
2023/03/08 17:40:06;;;;;;;16.70;9.15;;;;;;;;;;10406941;27;20078;-64
2023/03/08 17:45:06;;;;;;;18.25;15.77;;;;;;;;;;10406489;27;20079;-63
2023/03/08 17:50:05;;;;;;;14.35;10.73;;;;;;;;;;10401763;27;20075;-63
2023/03/08 17:55:04;;;;;;;26.52;21.33;;;;;;;;;;10403841;27;20075;-63
2023/03/08 18:00:03;;;;;;;9.50;6.78;;;;;;;;;;10407149;27;20082;-64
2023/03/08 18:05:02;;;;;;;7.10;4.80;;;;;;;;;;10404489;27;20858;-63
2023/03/08 18:10:01;;;;;;;6.40;4.13;;;;;;;;;;10397555;27;20071;-64
2023/03/08 18:15:00;;;;;;;36.00;24.85;;;;;;;;;;10400437;28;20481;-64
2023/03/08 18:19:58;;;;;;;7.03;5.75;;;;;;;;;;10389410;28;20078;-62
2023/03/08 18:24:58;;;;;;;7.55;4.88;;;;;;;;;;10398083;27;20470;-62
2023/03/08 18:29:56;;;;;;;28.80;20.73;;;;;;;;;;10399515;28;20480;-62
2023/03/08 18:34:54;;;;;;;10.05;7.03;;;;;;;;;;10397880;28;20067;-62
2023/03/08 18:39:53;;;;;;;7.03;5.30;;;;;;;;;;10403582;27;20060;-62
2023/03/08 18:44:53;;;;;;;17.08;15.27;;;;;;;;;;10406108;28;20063;-63
2023/03/08 18:49:51;;;;;;;9.45;6.90;;;;;;;;;;10408539;27;20160;-63
2023/03/08 18:54:49;;;;;;;5.05;4.45;;;;;;;;;;10413738;27;20077;-62
2023/03/08 18:59:48;;;;;;;6.57;4.50;;;;;;;;;;10406902;27;20146;-62
2023/03/08 19:04:47;;;;;;;7.20;3.78;;;;;;;;;;10412288;27;20138;-63
2023/03/08 19:09:45;;;;;;;4.75;3.40;;;;;;;;;;10413003;27;20082;-63
2023/03/08 19:14:45;;;;;;;9.93;3.60;;;;;;;;;;10406564;27;20077;-64
2023/03/08 19:19:43;;;;;;;5.18;3.45;;;;;;;;;;10406971;27;20564;-63
2023/03/08 19:24:43;;;;;;;4.50;4.10;;;;;;;;;;10413300;27;20126;-62
2023/03/08 19:29:41;;;;;;;6.07;3.95;;;;;;;;;;10405198;27;20152;-62
2023/03/08 19:34:41;;;;;;;5.82;3.85;;;;;;;;;;10408098;27;20495;-62
2023/03/08 19:39:39;;;;;;;6.60;3.13;;;;;;;;;;10407544;27;20075;-63
2023/03/08 19:44:39;;;;;;;4.95;3.38;;;;;;;;;;10417623;27;20456;-64
2023/03/08 19:49:37;;;;;;;4.30;3.40;;;;;;;;;;10403467;27;20070;-63
2023/03/08 19:54:35;;;;;;;11.07;4.40;;;;;;;;;;10409243;27;20063;-63
2023/03/08 19:59:35;;;;;;;5.07;3.20;;;;;;;;;;10415982;27;20109;-63
2023/03/08 20:04:35;;;;;;;5.03;4.50;;;;;;;;;;10415033;27;20079;-63
2023/03/08 20:09:33;;;;;;;7.28;3.75;;;;;;;;;;10407996;27;20113;-63
2023/03/08 20:14:31;;;;;;;7.78;4.75;;;;;;;;;;10412642;27;20062;-63
2023/03/08 20:19:30;;;;;;;11.35;5.35;;;;;;;;;;10414935;27;20042;-64
2023/03/08 20:24:30;;;;;;;10.95;5.22;;;;;;;;;;10415524;27;20082;-63
2023/03/08 20:29:28;;;;;;;13.75;8.27;;;;;;;;;;10410616;27;20082;-63
2023/03/08 20:34:27;;;;;;;7.25;3.78;;;;;;;;;;10411858;27;20086;-63
2023/03/08 20:39:25;;;;;;;8.13;3.10;;;;;;;;;;10416359;27;20070;-63
2023/03/08 20:44:24;;;;;;;6.60;4.15;;;;;;;;;;10414875;27;20137;-63
2023/03/08 20:49:24;;;;;;;5.90;3.65;;;;;;;;;;10414955;27;20071;-63
2023/03/08 20:54:22;;;;;;;4.90;3.10;;;;;;;;;;10411856;27;20078;-64
2023/03/08 20:59:22;;;;;;;8.45;3.22;;;;;;;;;;10414101;27;20090;-63
2023/03/08 21:04:23;;;;;;;5.07;4.57;;;;;;;;;;10413634;27;20058;-63
2023/03/08 21:09:22;;;;;;;6.05;3.30;;;;;;;;;;10413763;27;20079;-63
2023/03/08 21:14:20;;;;;;;3.35;2.85;;;;;;;;;;10404163;27;20160;-63
2023/03/08 21:19:18;;;;;;;5.85;2.83;;;;;;;;;;10413126;27;20066;-63
2023/03/08 21:24:20;;;;;;;5.25;3.00;;;;;;;;;;10410480;27;20071;-63
2023/03/08 21:29:21;;;;;;;5.95;3.60;;;;;;;;;;10415159;27;20075;-63
2023/03/08 21:34:19;;;;;;;4.68;3.70;;;;;;;;;;10410934;27;20074;-63
2023/03/08 21:39:19;;;;;;;7.00;4.65;;;;;;;;;;10409620;27;20082;-63
2023/03/08 21:44:18;;;;;;;7.32;3.22;;;;;;;;;;10417800;27;20079;-63
2023/03/08 21:49:18;;;;;;;7.68;5.15;;;;;;;;;;10412318;27;20074;-63
2023/03/08 21:54:16;;;;;;;5.85;4.00;;;;;;;;;;10413908;27;20164;-63
2023/03/08 21:59:16;;;;;;;4.82;4.07;;;;;;;;;;10409740;27;20047;-63
2023/03/08 22:04:15;;;;;;;6.18;3.95;;;;;;;;;;10412866;27;20445;-64
2023/03/08 22:09:13;;;;;;;4.03;3.28;;;;;;;;;;10411146;27;20063;-63
2023/03/08 22:14:11;;;;;;;4.45;3.38;;;;;;;;;;10409439;28;20071;-63
2023/03/08 22:19:11;;;;;;;5.57;3.33;;;;;;;;;;10409352;28;20075;-63
2023/03/08 22:24:09;;;;;;;6.20;3.40;;;;;;;;;;10414259;27;20516;-62
2023/03/08 22:29:07;;;;;;;4.85;3.30;;;;;;;;;;10422032;27;20063;-61
2023/03/08 22:34:06;;;;;;;5.05;3.20;;;;;;;;;;10421288;27;20079;-63
2023/03/08 22:39:06;;;;;;;5.22;3.83;;;;;;;;;;10420057;27;20071;-63
2023/03/08 22:44:05;;;;;;;6.88;4.35;;;;;;;;;;10420795;27;20082;-63
2023/03/08 22:49:05;;;;;;;6.22;4.10;;;;;;;;;;10418743;27;20078;-63
2023/03/08 22:54:06;;;;;;;7.63;3.78;;;;;;;;;;10419845;27;20071;-63
2023/03/08 22:59:06;;;;;;;7.57;3.80;;;;;;;;;;10419609;27;20528;-63
2023/03/08 23:04:05;;;;;;;5.65;3.65;;;;;;;;;;10417101;27;20082;-63
2023/03/08 23:09:04;;;;;;;6.72;3.80;;;;;;;;;;10419103;27;20070;-63
2023/03/08 23:14:06;;;;;;;9.70;4.75;;;;;;;;;;10417394;27;20059;-63
2023/03/08 23:19:04;;;;;;;5.43;4.30;;;;;;;;;;10418276;27;20136;-62
2023/03/08 23:24:03;;;;;;;5.53;4.10;;;;;;;;;;10412993;27;20469;-63
2023/03/08 23:29:02;;;;;;;8.13;4.18;;;;;;;;;;10418705;27;20144;-62
2023/03/08 23:34:02;;;;;;;4.88;3.80;;;;;;;;;;10416708;27;20086;-62
2023/03/08 23:39:02;;;;;;;5.63;4.22;;;;;;;;;;10421729;27;20070;-63
2023/03/08 23:44:01;;;;;;;6.28;3.58;;;;;;;;;;10419400;27;20079;-63
2023/03/08 23:48:59;;;;;;;7.55;4.97;;;;;;;;;;10415267;27;20055;-63
2023/03/08 23:54:00;;;;;;;6.88;4.30;;;;;;;;;;10414001;27;20075;-63
2023/03/08 23:58:59;;;;;;;7.00;4.07;;;;;;;;;;10413608;27;20082;-63
